Time;durP1;ratioP1;P1;durP2;ratioP2;P2;SDS_P1;SDS_P2;PMS_P1;PMS_P2;Temp;Humidity;BMP_temperature;BMP_pressure;BME280_temperature;BME280_humidity;BME280_pressure;Samples;Min_cycle;Max_cycle;Signal;HPM_P1;HPM_P2
2022/07/21 00:06:09;;;;;;;9.80;8.80;;;;;;;19.13;100.00;98225.81;18495702;32;20076;-62
2022/07/21 00:16:12;;;;;;;8.97;8.07;;;;;;;19.10;100.00;98240.16;18495509;32;20061;-62
2022/07/21 00:26:22;;;;;;;10.65;9.00;;;;;;;19.07;100.00;98229.81;18481051;32;20052;-62
2022/07/21 00:36:25;;;;;;;9.20;8.10;;;;;;;19.04;100.00;98246.88;18495354;32;20094;-62
2022/07/21 00:46:27;;;;;;;10.95;8.55;;;;;;;18.99;100.00;98254.41;18481254;32;20080;-62
2022/07/21 00:56:30;;;;;;;9.67;8.07;;;;;;;18.98;100.00;98255.53;18506633;32;20411;-62
2022/07/21 01:06:33;;;;;;;9.03;7.80;;;;;;;18.90;100.00;98246.16;18506315;32;20392;-63
2022/07/21 01:16:36;;;;;;;9.23;8.10;;;;;;;18.87;100.00;98247.53;18491363;32;20120;-62
2022/07/21 01:26:48;;;;;;;9.80;7.70;;;;;;;18.85;100.00;98244.28;18505299;32;20065;-62
2022/07/21 01:36:50;;;;;;;9.38;8.38;;;;;;;18.84;100.00;98253.63;18504495;32;20071;-63
2022/07/21 01:46:53;;;;;;;7.57;6.78;;;;;;;18.84;100.00;98250.88;18503539;32;20052;-62
2022/07/21 01:56:55;;;;;;;8.00;6.77;;;;;;;18.85;100.00;98255.25;18503413;32;20097;-63
2022/07/21 02:06:58;;;;;;;8.88;7.40;;;;;;;18.82;100.00;98228.47;18502473;32;20110;-63
2022/07/21 02:17:00;;;;;;;9.43;8.10;;;;;;;18.76;100.00;98213.25;18487632;32;20053;-63
2022/07/21 02:27:03;;;;;;;8.17;7.40;;;;;;;18.75;100.00;98228.91;18487418;32;20053;-63
2022/07/21 02:37:05;;;;;;;8.63;7.27;;;;;;;18.73;100.00;98220.22;18486548;32;20071;-63
2022/07/21 02:47:08;;;;;;;8.77;7.87;;;;;;;18.67;100.00;98221.44;18500031;32;20050;-63
2022/07/21 02:57:10;;;;;;;7.65;6.80;;;;;;;18.60;100.00;98234.75;18499183;32;20065;-63
2022/07/21 03:07:15;;;;;;;7.72;6.93;;;;;;;18.54;100.00;98222.28;18499443;32;20467;-62
2022/07/21 03:17:18;;;;;;;9.27;8.38;;;;;;;18.49;100.00;98239.66;18483986;32;20445;-63
2022/07/21 03:27:20;;;;;;;8.20;7.00;;;;;;;18.41;100.00;98229.41;18497877;32;20071;-63
2022/07/21 03:37:23;;;;;;;7.68;6.75;;;;;;;18.36;100.00;98244.00;18496810;32;20057;-62
2022/07/21 03:47:25;;;;;;;7.10;5.97;;;;;;;18.32;100.00;98242.22;18496827;32;20114;-62
2022/07/21 03:57:27;;;;;;;8.02;7.00;;;;;;;18.19;100.00;98250.13;18495825;32;20099;-62
2022/07/21 04:07:30;;;;;;;6.00;5.40;;;;;;;18.11;100.00;98251.66;18481988;32;20109;-62
2022/07/21 04:17:33;;;;;;;6.95;6.35;;;;;;;17.99;100.00;98256.03;18481503;32;20105;-62
2022/07/21 04:27:36;;;;;;;7.57;6.63;;;;;;;17.90;100.00;98275.84;18503985;32;20052;-63
2022/07/21 04:37:39;;;;;;;10.18;8.20;;;;;;;17.83;100.00;98275.47;18508085;32;20049;-63
2022/07/21 04:47:54;;;;;;;7.68;6.97;;;;;;;17.85;100.00;98267.75;18507488;32;20105;-63
2022/07/21 04:57:58;;;;;;;8.73;7.82;;;;;;;18.03;100.00;98273.47;18506639;32;20100;-63
2022/07/21 05:08:00;;;;;;;10.23;9.13;;;;;;;18.32;100.00;98278.59;18506165;32;20065;-63
2022/07/21 05:18:03;;;;;;;10.73;8.57;;;;;;;18.50;100.00;98282.34;18505703;32;20113;-63
2022/07/21 05:28:06;;;;;;;10.27;9.23;;;;;;;18.53;100.00;98286.41;18490884;32;20087;-63
2022/07/21 05:38:09;;;;;;;10.23;8.70;;;;;;;18.62;100.00;98282.62;18476290;32;20057;-63
2022/07/21 05:48:11;;;;;;;10.15;8.60;;;;;;;18.84;100.00;98286.50;18489554;32;20045;-63
2022/07/21 05:58:14;;;;;;;10.47;9.37;;;;;;;19.17;100.00;98293.72;18502119;32;20369;-63
2022/07/21 06:08:17;;;;;;;12.90;9.88;;;;;;;19.56;100.00;98312.22;18488614;32;20373;-63
2022/07/21 06:18:19;;;;;;;13.97;10.53;;;;;;;19.93;100.00;98321.16;18502258;32;20061;-63
2022/07/21 06:28:24;;;;;;;11.40;9.77;;;;;;;20.28;100.00;98326.81;18501066;32;20057;-63
2022/07/21 06:38:27;;;;;;;;;;;;;;;20.69;100.00;98335.78;18499629;32;20088;-63
2022/07/21 06:48:30;;;;;;;9.03;8.13;;;;;;;21.06;100.00;98339.06;18500550;32;19956;-63
2022/07/21 06:58:34;;;;;;;10.10;9.10;;;;;;;21.45;100.00;98342.78;18485050;32;20377;-63
2022/07/21 07:08:41;;;;;;;9.15;7.12;;;;;;;21.71;100.00;98352.97;18484691;32;20095;-63
2022/07/21 07:18:46;;;;;;;10.65;7.90;;;;;;;21.67;100.00;98358.31;18498217;32;20088;-63
2022/07/21 07:28:48;;;;;;;;;;;;;;;21.84;96.96;98362.16;18496817;32;20057;-63
2022/07/21 07:38:53;;;;;;;7.57;6.62;;;;;;;22.12;95.60;98361.78;18497461;32;19952;-63
2022/07/21 07:48:56;;;;;;;6.93;5.70;;;;;;;22.21;94.44;98356.22;18496829;32;20057;-63
2022/07/21 07:59:07;;;;;;;6.35;5.28;;;;;;;22.33;94.59;98359.09;18495594;32;20377;-63
2022/07/21 08:09:10;;;;;;;5.05;3.87;;;;;;;22.62;93.71;98349.25;18494548;32;20155;-63
2022/07/21 08:19:13;;;;;;;7.37;4.07;;;;;;;23.01;83.36;98339.72;18468780;32;20045;-63
2022/07/21 08:29:16;;;;;;;4.55;3.67;;;;;;;23.18;81.30;98340.78;18495683;32;20342;-62
2022/07/21 08:39:20;;;;;;;4.53;3.80;;;;;;;23.71;81.47;98340.28;18481032;32;20073;-63
2022/07/21 08:49:23;;;;;;;4.25;3.50;;;;;;;23.67;74.24;98340.97;18494816;32;20445;-63
2022/07/21 08:59:26;;;;;;;4.35;3.30;;;;;;;23.90;75.00;98343.34;18428242;32;20125;-62
2022/07/21 09:09:34;;;;;;;5.03;3.87;;;;;;;23.96;78.13;98333.69;18444064;32;20106;-62
2022/07/21 09:19:38;;;;;;;5.50;3.80;;;;;;;25.07;71.37;98332.06;18441331;32;20061;-62
2022/07/21 09:29:59;;;;;;;4.78;3.58;;;;;;;26.20;65.93;98340.28;18440513;32;20061;-62
2022/07/21 09:40:10;;;;;;;3.83;3.12;;;;;;;26.80;65.60;98339.34;18438872;32;20057;-63
2022/07/21 09:50:20;;;;;;;3.28;2.97;;;;;;;26.48;60.93;98342.16;18450814;32;20062;-63
2022/07/21 10:00:33;;;;;;;3.95;2.95;;;;;;;26.93;61.06;98338.06;18437153;32;20384;-63
2022/07/21 10:10:37;;;;;;;2.90;2.60;;;;;;;26.89;58.24;98337.19;18436706;32;20085;-62
2022/07/21 10:21:21;;;;;;;4.85;3.65;;;;;;;26.98;60.30;98339.75;18436207;32;20065;-62
2022/07/21 10:31:28;;;;;;;5.03;3.47;;;;;;;27.24;54.23;98322.44;18435844;32;20437;-62
2022/07/21 10:41:52;;;;;;;4.97;3.85;;;;;;;27.68;57.96;98326.88;18434938;32;20107;-62
2022/07/21 10:51:55;;;;;;;6.05;4.22;;;;;;;27.58;57.86;98319.16;18437097;32;20057;-62
2022/07/21 11:02:28;;;;;;;4.18;3.70;;;;;;;26.30;58.28;98319.53;18499510;32;20406;-62
2022/07/21 11:12:56;;;;;;;5.72;4.07;;;;;;;26.67;56.50;98300.59;18485101;32;20471;-62
2022/07/21 11:23:12;;;;;;;6.97;3.22;;;;;;;27.82;53.00;98298.56;18497133;32;20046;-62
2022/07/21 11:33:22;;;;;;;4.05;3.20;;;;;;;28.12;50.88;98286.78;18496771;32;20081;-62
2022/07/21 11:43:44;;;;;;;4.15;3.35;;;;;;;28.33;50.66;98275.22;18495794;32;20083;-62
2022/07/21 12:05:00;;;;;;;3.95;2.62;;;;;;;29.35;49.70;98258.69;18496097;32;20062;-62
2022/07/21 12:15:29;;;;;;;3.87;3.05;;;;;;;29.73;48.08;98251.09;18481524;32;20062;-62
2022/07/21 12:25:40;;;;;;;5.40;3.62;;;;;;;29.93;54.27;98246.13;18481367;32;20065;-62
2022/07/21 12:35:56;;;;;;;3.95;3.10;;;;;;;30.14;46.99;98234.31;18495073;32;20108;-62
2022/07/21 12:46:03;;;;;;;4.07;2.70;;;;;;;30.39;46.24;98240.06;18499914;32;20085;-62
2022/07/21 12:56:07;;;;;;;6.57;3.78;;;;;;;30.52;43.75;98231.41;18506927;32;20090;-62
2022/07/21 13:06:13;;;;;;;7.28;3.08;;;;;;;30.50;47.20;98228.22;18506523;32;20109;-62
2022/07/21 13:16:18;;;;;;;3.97;3.12;;;;;;;30.87;39.18;98232.78;18505967;32;20072;-62
2022/07/21 13:26:21;;;;;;;4.47;3.30;;;;;;;31.11;45.34;98225.72;18504376;32;20100;-62
2022/07/21 13:36:23;;;;;;;3.78;3.12;;;;;;;31.81;39.02;98207.84;18490569;32;20075;-62
2022/07/21 13:46:27;;;;;;;3.75;3.10;;;;;;;31.72;42.38;98206.25;18504161;32;20406;-62
2022/07/21 13:56:30;;;;;;;4.00;2.90;;;;;;;31.73;41.69;98207.84;18488414;32;20091;-62
2022/07/21 14:06:32;;;;;;;3.67;2.53;;;;;;;32.11;41.81;98207.44;18476396;32;20406;-61
2022/07/21 14:16:44;;;;;;;4.45;2.50;;;;;;;32.54;40.31;98198.97;18489401;32;20090;-61
2022/07/21 14:26:47;;;;;;;2.87;2.25;;;;;;;33.16;40.00;98202.31;18502609;32;20064;-61
2022/07/21 14:36:51;;;;;;;2.80;2.22;;;;;;;33.20;37.10;98194.69;18500880;32;20384;-61
2022/07/21 14:46:53;;;;;;;3.20;2.00;;;;;;;33.84;39.25;98192.66;18486039;32;20381;-61
2022/07/21 14:56:56;;;;;;;2.85;2.42;;;;;;;33.58;37.24;98194.06;18485607;32;20077;-61
2022/07/21 15:07:11;;;;;;;3.95;2.50;;;;;;;33.38;35.45;98183.38;18486767;32;20342;-61
2022/07/21 15:17:15;;;;;;;2.75;2.30;;;;;;;31.65;34.99;98169.91;18498422;32;20069;-61
2022/07/21 15:27:20;;;;;;;2.47;2.20;;;;;;;30.68;39.00;98150.94;18497942;32;20108;-61
2022/07/21 15:37:23;;;;;;;3.45;2.40;;;;;;;30.25;40.73;98150.72;18483514;32;20444;-61
2022/07/21 15:47:26;;;;;;;4.15;2.65;;;;;;;29.66;39.10;98139.56;18496753;32;20106;-61
2022/07/21 15:57:29;;;;;;;3.58;2.62;;;;;;;29.15;42.34;98130.75;18469613;32;20408;-61
2022/07/21 16:07:32;;;;;;;2.87;2.28;;;;;;;28.82;42.92;98117.66;18482115;32;20534;-61
2022/07/21 16:17:35;;;;;;;3.03;2.70;;;;;;;28.41;46.34;98112.81;18493993;32;20106;-61
2022/07/21 16:27:38;;;;;;;4.78;2.92;;;;;;;28.24;44.12;98100.28;18481326;32;20061;-61
2022/07/21 16:37:42;;;;;;;3.35;2.53;;;;;;;27.94;44.40;98098.25;18480971;32;20061;-61
2022/07/21 16:47:46;;;;;;;3.28;2.87;;;;;;;27.88;48.30;98095.00;18480462;32;20058;-61
2022/07/21 16:57:48;;;;;;;3.28;2.92;;;;;;;27.92;45.70;98088.72;18494661;32;20057;-61
2022/07/21 17:07:51;;;;;;;3.65;3.10;;;;;;;29.31;44.93;98094.31;18494363;32;20101;-61
2022/07/21 17:17:54;;;;;;;3.72;2.70;;;;;;;28.04;48.55;98083.75;18493669;32;20061;-61
2022/07/21 17:27:57;;;;;;;3.70;2.90;;;;;;;27.10;52.20;98077.91;18493498;32;20057;-61
2022/07/21 17:38:00;;;;;;;3.62;3.08;;;;;;;26.41;55.94;98070.25;18503446;32;20449;-62
2022/07/21 17:48:02;;;;;;;6.50;2.70;;;;;;;25.94;57.92;98078.41;18504126;32;20064;-62
2022/07/21 18:08:34;;;;;;;4.18;2.67;;;;;;;25.15;61.60;98074.56;18502546;32;20087;-62
2022/07/21 18:18:38;;;;;;;4.25;2.85;;;;;;;24.76;63.87;98074.34;18475703;32;20053;-62
2022/07/21 18:28:41;;;;;;;2.78;2.40;;;;;;;24.24;66.67;98072.47;18487811;32;20045;-62
2022/07/21 18:38:44;;;;;;;5.65;3.05;;;;;;;23.75;70.18;98071.44;18501134;32;20073;-62
2022/07/21 18:48:47;;;;;;;6.53;2.90;;;;;;;23.28;73.93;98064.47;18485803;32;20064;-62
2022/07/21 18:58:56;;;;;;;3.83;2.95;;;;;;;22.80;75.89;98060.47;18498621;32;20069;-62
2022/07/21 19:08:58;;;;;;;3.33;2.85;;;;;;;22.38;77.22;98057.81;18485119;32;20060;-62
2022/07/21 19:19:00;;;;;;;5.70;3.05;;;;;;;21.97;78.53;98061.03;18483893;32;20060;-62
2022/07/21 19:29:03;;;;;;;3.77;3.27;;;;;;;21.55;80.02;98066.50;18498280;32;20103;-62
2022/07/21 19:39:05;;;;;;;5.70;3.57;;;;;;;21.16;82.29;98065.72;18497459;32;20346;-62
2022/07/21 19:49:08;;;;;;;3.60;2.83;;;;;;;20.80;84.58;98062.28;18496990;32;20433;-62
2022/07/21 19:59:11;;;;;;;6.00;3.07;;;;;;;20.48;86.50;98077.34;18495491;32;20065;-62
2022/07/21 20:09:14;;;;;;;5.75;3.15;;;;;;;20.16;86.54;98076.75;18495456;32;20061;-62
2022/07/21 20:19:16;;;;;;;4.77;3.33;;;;;;;19.89;87.92;98073.16;18495894;32;20113;-62
2022/07/21 20:29:19;;;;;;;5.60;3.67;;;;;;;19.63;88.90;98078.59;18481842;32;20045;-62
2022/07/21 20:39:21;;;;;;;6.03;2.97;;;;;;;19.30;89.50;98074.31;18494140;32;20093;-62
2022/07/21 20:49:24;;;;;;;4.05;2.90;;;;;;;19.12;90.42;98078.13;18480494;32;20073;-62
2022/07/21 20:59:26;;;;;;;4.23;3.20;;;;;;;19.00;91.41;98075.19;18480227;32;20053;-62
2022/07/21 21:09:28;;;;;;;3.62;2.80;;;;;;;18.84;92.26;98081.00;18501040;32;20092;-62
2022/07/21 21:19:31;;;;;;;3.35;3.05;;;;;;;18.66;93.01;98082.06;18492028;32;20077;-62
2022/07/21 21:29:33;;;;;;;7.47;3.10;;;;;;;18.49;94.17;98083.56;18505406;32;20061;-62
2022/07/21 21:39:36;;;;;;;3.50;3.20;;;;;;;18.35;95.11;98085.53;18503624;32;20120;-62
2022/07/21 21:49:39;;;;;;;3.90;2.97;;;;;;;18.20;95.98;98087.53;18489995;32;20083;-62
2022/07/21 21:59:41;;;;;;;4.20;2.83;;;;;;;18.15;97.38;98084.12;18489474;32;20083;-62
2022/07/21 22:09:44;;;;;;;3.20;2.80;;;;;;;18.03;97.86;98081.91;18503090;32;20057;-62
2022/07/21 22:19:46;;;;;;;3.50;2.70;;;;;;;17.90;98.28;98080.81;18501662;32;20056;-62
2022/07/21 22:29:48;;;;;;;3.90;3.28;;;;;;;17.75;98.60;98071.03;18501986;32;20061;-62
2022/07/21 22:39:51;;;;;;;4.47;3.05;;;;;;;17.65;99.13;98068.50;18501367;32;20057;-62
2022/07/21 22:49:53;;;;;;;4.10;3.08;;;;;;;17.52;100.00;98072.87;18500487;32;20461;-62
2022/07/21 22:59:55;;;;;;;5.18;3.30;;;;;;;17.37;99.78;98063.09;18433900;32;20075;-62
2022/07/21 23:09:58;;;;;;;3.95;3.15;;;;;;;17.25;100.00;98069.88;18434888;32;20117;-62
2022/07/21 23:20:00;;;;;;;3.67;3.12;;;;;;;17.11;100.00;98064.37;18434171;32;20088;-62
2022/07/21 23:30:03;;;;;;;3.75;2.85;;;;;;;16.99;100.00;98057.81;18433629;32;20109;-62
2022/07/21 23:40:06;;;;;;;4.25;3.12;;;;;;;16.87;100.00;98067.28;18432955;32;20330;-62
2022/07/21 23:50:09;;;;;;;4.82;3.08;;;;;;;16.80;100.00;98064.16;18432851;32;20091;-62
